Time;durP1;ratioP1;P1;durP2;ratioP2;P2;SDS_P1;SDS_P2;PMS_P1;PMS_P2;Temp;Humidity;BMP_temperature;BMP_pressure;BME280_temperature;BME280_humidity;BME280_pressure;Samples;Min_cycle;Max_cycle;Signal;HPM_P1;HPM_P2
2022/10/14 00:00:39;;;;;;;0.20;0.20;;;;;;;;;;5072552;28;20056;-66
2022/10/14 00:03:04;;;;;;;0.10;0.10;;;;;;;;;;5051542;28;20073;-64
2022/10/14 00:05:30;;;;;;;0.20;0.20;;;;;;;;;;5052322;28;20025;-65
2022/10/14 00:07:55;;;;;;;0.10;0.10;;;;;;;;;;5054109;28;20353;-65
2022/10/14 00:10:21;;;;;;;2.58;2.47;;;;;;;;;;5056604;28;20041;-66
2022/10/14 00:12:46;;;;;;;0.25;0.25;;;;;;;;;;5076553;28;20433;-64
2022/10/14 00:15:12;;;;;;;0.90;0.82;;;;;;;;;;5076382;28;20024;-64
2022/10/14 00:17:38;;;;;;;1.20;1.05;;;;;;;;;;5075111;28;20045;-65
2022/10/14 00:20:03;;;;;;;0.20;0.20;;;;;;;;;;5070239;28;20043;-65
2022/10/14 00:22:29;;;;;;;0.45;0.45;;;;;;;;;;5073812;28;20118;-65
2022/10/14 00:24:55;;;;;;;0.15;0.15;;;;;;;;;;5076382;28;20020;-65
2022/10/14 00:27:20;;;;;;;0.10;0.10;;;;;;;;;;5076013;28;20020;-65
2022/10/14 00:29:46;;;;;;;2.50;1.08;;;;;;;;;;5073930;28;20024;-65
2022/10/14 00:32:11;;;;;;;0.30;0.30;;;;;;;;;;5074633;28;20040;-65
2022/10/14 00:34:37;;;;;;;0.10;0.10;;;;;;;;;;5075900;28;20032;-65
2022/10/14 00:37:02;;;;;;;0.10;0.10;;;;;;;;;;5088298;28;20055;-66
2022/10/14 00:39:28;;;;;;;0.30;0.30;;;;;;;;;;5094849;28;20095;-65
2022/10/14 00:41:55;;;;;;;0.10;0.10;;;;;;;;;;5096255;28;20115;-66
2022/10/14 00:44:20;;;;;;;8.77;8.35;;;;;;;;;;5094899;28;20589;-65
2022/10/14 00:46:47;;;;;;;0.13;0.13;;;;;;;;;;5069505;28;20036;-65
2022/10/14 00:49:19;;;;;;;1.20;1.20;;;;;;;;;;5055530;28;20060;-66
2022/10/14 00:51:51;;;;;;;0.30;0.30;;;;;;;;;;5055884;28;20029;-64
2022/10/14 00:54:18;;;;;;;0.20;0.20;;;;;;;;;;5055641;28;20033;-64
2022/10/14 00:56:44;;;;;;;0.10;0.10;;;;;;;;;;5055737;28;20376;-64
2022/10/14 00:59:10;;;;;;;0.20;0.20;;;;;;;;;;5055701;28;20388;-64
2022/10/14 01:01:36;;;;;;;0.28;0.28;;;;;;;;;;5073357;28;20103;-64
2022/10/14 01:04:01;;;;;;;0.22;0.22;;;;;;;;;;5095569;28;20464;-64
2022/10/14 01:06:46;;;;;;;0.20;0.20;;;;;;;;;;5095964;28;20028;-64
2022/10/14 01:09:23;;;;;;;0.32;0.32;;;;;;;;;;5095720;28;20028;-65
2022/10/14 01:11:48;;;;;;;0.10;0.10;;;;;;;;;;5094624;28;20024;-67
2022/10/14 01:14:37;;;;;;;0.30;0.30;;;;;;;;;;5095834;28;20523;-67
2022/10/14 01:17:09;;;;;;;0.55;0.50;;;;;;;;;;5076813;28;20063;-66
2022/10/14 01:19:53;;;;;;;0.95;0.95;;;;;;;;;;5094354;28;20032;-65
2022/10/14 01:22:25;;;;;;;1.13;0.45;;;;;;;;;;5095730;28;20077;-65
2022/10/14 01:25:10;;;;;;;0.95;0.95;;;;;;;;;;5093974;28;20038;-65
2022/10/14 01:27:49;;;;;;;0.32;0.25;;;;;;;;;;5086781;28;20025;-65
2022/10/14 01:30:22;;;;;;;0.10;0.10;;;;;;;;;;5054996;28;20040;-66
2022/10/14 01:33:08;;;;;;;0.20;0.20;;;;;;;;;;5055110;28;20035;-65
2022/10/14 01:35:37;;;;;;;0.10;0.10;;;;;;;;;;5055410;28;20472;-65
2022/10/14 01:38:09;;;;;;;0.10;0.10;;;;;;;;;;5053772;28;20025;-66
2022/10/14 01:40:38;;;;;;;2.03;1.77;;;;;;;;;;5054977;28;20480;-65
2022/10/14 01:43:04;;;;;;;3.10;2.13;;;;;;;;;;5053518;28;20392;-65
2022/10/14 01:45:31;;;;;;;2.58;1.73;;;;;;;;;;5054708;28;20029;-66
2022/10/14 01:47:57;;;;;;;3.05;1.45;;;;;;;;;;5053236;28;20028;-65
2022/10/14 01:50:27;;;;;;;0.20;0.20;;;;;;;;;;5053434;28;20017;-64
2022/10/14 01:53:13;;;;;;;0.60;0.55;;;;;;;;;;5053516;28;20390;-65
2022/10/14 01:55:42;;;;;;;0.20;0.20;;;;;;;;;;5053293;28;20033;-65
2022/10/14 01:58:08;;;;;;;0.10;0.10;;;;;;;;;;5053203;28;20385;-65
2022/10/14 02:00:34;;;;;;;2.40;1.17;;;;;;;;;;5052882;28;20033;-67
2022/10/14 02:03:01;;;;;;;1.05;0.70;;;;;;;;;;5054802;28;20068;-65
2022/10/14 02:05:30;;;;;;;0.85;0.80;;;;;;;;;;5054680;28;20065;-65
2022/10/14 02:08:05;;;;;;;1.90;1.80;;;;;;;;;;5054563;28;20116;-65
2022/10/14 02:10:38;;;;;;;0.10;0.10;;;;;;;;;;5053089;28;20029;-65
2022/10/14 02:13:13;;;;;;;0.30;0.30;;;;;;;;;;5052853;28;20493;-65
2022/10/14 02:15:42;;;;;;;0.10;0.10;;;;;;;;;;5053151;28;20427;-66
2022/10/14 02:18:26;;;;;;;0.10;0.10;;;;;;;;;;5052683;28;20053;-66
2022/10/14 02:21:10;;;;;;;0.10;0.10;;;;;;;;;;5052805;28;20492;-65
2022/10/14 02:23:43;;;;;;;0.40;0.40;;;;;;;;;;5053914;28;20037;-65
2022/10/14 02:26:10;;;;;;;0.68;0.68;;;;;;;;;;5053872;28;20052;-65
2022/10/14 02:28:36;;;;;;;0.17;0.17;;;;;;;;;;5053978;28;20074;-65
2022/10/14 02:31:07;;;;;;;0.13;0.13;;;;;;;;;;5065362;28;20028;-66
2022/10/14 02:33:35;;;;;;;2.72;1.70;;;;;;;;;;5092603;28;20035;-65
2022/10/14 02:36:02;;;;;;;0.10;0.10;;;;;;;;;;5092686;28;20028;-65
2022/10/14 02:38:29;;;;;;;0.10;0.10;;;;;;;;;;5094082;28;20043;-66
2022/10/14 02:40:54;;;;;;;0.17;0.17;;;;;;;;;;5075922;28;20024;-65
2022/10/14 02:43:20;;;;;;;0.10;0.10;;;;;;;;;;5092547;28;20047;-66
2022/10/14 02:45:45;;;;;;;0.10;0.10;;;;;;;;;;5093926;28;20077;-66
2022/10/14 02:48:11;;;;;;;0.10;0.10;;;;;;;;;;5092512;28;20466;-65
2022/10/14 02:50:37;;;;;;;0.20;0.20;;;;;;;;;;5093657;28;20016;-66
2022/10/14 02:53:02;;;;;;;0.10;0.10;;;;;;;;;;5093847;28;20421;-65
2022/10/14 02:55:28;;;;;;;0.10;0.10;;;;;;;;;;5093932;28;20468;-65
2022/10/14 02:57:54;;;;;;;0.17;0.17;;;;;;;;;;5092490;28;20028;-66
2022/10/14 03:00:19;;;;;;;0.13;0.13;;;;;;;;;;5092491;28;20036;-65
2022/10/14 03:02:45;;;;;;;0.20;0.20;;;;;;;;;;5077760;28;20037;-67
2022/10/14 03:05:13;;;;;;;0.10;0.10;;;;;;;;;;5049106;28;20412;-66
2022/10/14 03:07:39;;;;;;;0.32;0.32;;;;;;;;;;5048257;28;20021;-69
2022/10/14 03:10:08;;;;;;;0.10;0.10;;;;;;;;;;5047901;28;20107;-65
2022/10/14 03:12:34;;;;;;;0.28;0.28;;;;;;;;;;5048460;28;20025;-65
2022/10/14 03:15:00;;;;;;;0.10;0.10;;;;;;;;;;5048007;28;20040;-65
2022/10/14 03:17:26;;;;;;;0.10;0.10;;;;;;;;;;5047835;28;20140;-65
2022/10/14 03:19:55;;;;;;;0.52;0.52;;;;;;;;;;5049317;28;20028;-65
2022/10/14 03:22:20;;;;;;;0.20;0.20;;;;;;;;;;5048392;28;20380;-66
2022/10/14 03:24:46;;;;;;;0.55;0.55;;;;;;;;;;5048046;28;20039;-65
2022/10/14 03:27:37;;;;;;;0.10;0.10;;;;;;;;;;5040831;28;20094;-65
2022/10/14 03:30:09;;;;;;;0.15;0.15;;;;;;;;;;5048422;28;20037;-66
2022/10/14 03:32:41;;;;;;;0.10;0.10;;;;;;;;;;5085088;28;20029;-65
2022/10/14 03:35:27;;;;;;;0.95;0.95;;;;;;;;;;5088055;28;20047;-65
2022/10/14 03:37:55;;;;;;;0.47;0.47;;;;;;;;;;5073812;28;20059;-65
2022/10/14 03:40:27;;;;;;;0.10;0.10;;;;;;;;;;5068628;28;20060;-65
2022/10/14 03:42:55;;;;;;;1.35;1.20;;;;;;;;;;5090098;28;20078;-65
2022/10/14 03:45:21;;;;;;;0.10;0.10;;;;;;;;;;5092615;28;20025;-68
2022/10/14 03:47:47;;;;;;;0.43;0.43;;;;;;;;;;5094183;28;20054;-65
2022/10/14 03:50:12;;;;;;;0.20;0.20;;;;;;;;;;5073351;28;20567;-66
2022/10/14 03:52:43;;;;;;;0.10;0.10;;;;;;;;;;5079912;28;20032;-68
2022/10/14 03:55:17;;;;;;;0.10;0.10;;;;;;;;;;5092151;28;20036;-66
2022/10/14 03:57:45;;;;;;;0.13;0.13;;;;;;;;;;5060350;28;20029;-65
2022/10/14 04:00:12;;;;;;;0.20;0.20;;;;;;;;;;5070404;28;20105;-66
2022/10/14 04:02:40;;;;;;;0.10;0.10;;;;;;;;;;5079931;28;20154;-65
2022/10/14 04:05:13;;;;;;;0.10;0.10;;;;;;;;;;5069728;28;20038;-65
2022/10/14 04:07:41;;;;;;;0.90;0.90;;;;;;;;;;5075356;28;20116;-65
2022/10/14 04:10:08;;;;;;;0.10;0.10;;;;;;;;;;5076365;28;20066;-68
2022/10/14 04:12:35;;;;;;;0.10;0.10;;;;;;;;;;5053286;28;20068;-66
2022/10/14 04:15:16;;;;;;;0.10;0.10;;;;;;;;;;5051606;28;20032;-65
2022/10/14 04:18:03;;;;;;;0.22;0.22;;;;;;;;;;5067388;28;20481;-65
2022/10/14 04:20:30;;;;;;;0.10;0.10;;;;;;;;;;5091430;28;20036;-65
2022/10/14 04:22:58;;;;;;;0.10;0.10;;;;;;;;;;5091559;28;20051;-65
2022/10/14 04:25:23;;;;;;;0.10;0.10;;;;;;;;;;5091750;28;20031;-66
2022/10/14 04:27:54;;;;;;;0.10;0.10;;;;;;;;;;5091775;28;20060;-68
2022/10/14 04:30:24;;;;;;;0.10;0.10;;;;;;;;;;5093029;28;20028;-66
2022/10/14 04:32:53;;;;;;;0.15;0.15;;;;;;;;;;5091239;28;20514;-69
2022/10/14 04:35:20;;;;;;;0.10;0.10;;;;;;;;;;5091597;28;20725;-65
2022/10/14 04:37:50;;;;;;;0.13;0.13;;;;;;;;;;5050250;28;20048;-66
2022/10/14 04:40:24;;;;;;;0.10;0.10;;;;;;;;;;5052429;28;20037;-69
2022/10/14 04:42:54;;;;;;;0.10;0.10;;;;;;;;;;5050951;28;20457;-68
2022/10/14 04:45:23;;;;;;;0.10;0.10;;;;;;;;;;5035302;28;20056;-66
2022/10/14 04:47:58;;;;;;;0.10;0.10;;;;;;;;;;5050445;28;20032;-66
2022/10/14 04:50:25;;;;;;;0.10;0.10;;;;;;;;;;5049043;28;20036;-67
2022/10/14 04:53:09;;;;;;;1.75;1.30;;;;;;;;;;5049734;28;20040;-66
2022/10/14 04:55:36;;;;;;;0.10;0.10;;;;;;;;;;5048983;28;20068;-66
2022/10/14 04:58:03;;;;;;;0.30;0.30;;;;;;;;;;5049521;28;20104;-65
2022/10/14 05:00:35;;;;;;;0.20;0.20;;;;;;;;;;5034354;28;20025;-66
2022/10/14 05:03:20;;;;;;;1.73;1.65;;;;;;;;;;5049762;28;20045;-65
2022/10/14 05:05:46;;;;;;;0.43;0.43;;;;;;;;;;5049862;28;20032;-66
2022/10/14 05:08:12;;;;;;;0.10;0.10;;;;;;;;;;5051504;28;20025;-65
2022/10/14 05:10:41;;;;;;;0.10;0.10;;;;;;;;;;5050230;28;20032;-66
2022/10/14 05:13:12;;;;;;;2.65;1.65;;;;;;;;;;5050640;28;20501;-65
2022/10/14 05:15:50;;;;;;;0.43;0.32;;;;;;;;;;5050249;28;20408;-66
2022/10/14 05:18:17;;;;;;;0.10;0.10;;;;;;;;;;5051422;28;20049;-66
2022/10/14 05:20:53;;;;;;;21.52;20.08;;;;;;;;;;5055560;28;20024;-66
2022/10/14 05:23:22;;;;;;;0.27;0.27;;;;;;;;;;5058756;28;20040;-65
2022/10/14 05:25:50;;;;;;;0.20;0.20;;;;;;;;;;5051177;28;20029;-66
2022/10/14 05:28:16;;;;;;;0.10;0.10;;;;;;;;;;5049861;28;20087;-65
2022/10/14 05:30:43;;;;;;;0.10;0.10;;;;;;;;;;5049727;28;20043;-66
2022/10/14 05:33:10;;;;;;;0.10;0.10;;;;;;;;;;5049974;28;20044;-67
2022/10/14 05:35:37;;;;;;;0.10;0.10;;;;;;;;;;5050357;28;20369;-67
2022/10/14 05:38:03;;;;;;;0.40;0.40;;;;;;;;;;5049603;28;20059;-66
2022/10/14 05:40:34;;;;;;;0.10;0.10;;;;;;;;;;5049733;28;20087;-66
2022/10/14 05:42:59;;;;;;;0.10;0.10;;;;;;;;;;5049708;28;20040;-66
2022/10/14 05:45:26;;;;;;;0.10;0.10;;;;;;;;;;5032994;28;20024;-66
2022/10/14 05:47:52;;;;;;;0.10;0.10;;;;;;;;;;5050844;28;20021;-65
2022/10/14 05:50:18;;;;;;;0.10;0.10;;;;;;;;;;5049152;28;20037;-68
2022/10/14 05:52:45;;;;;;;1.02;1.02;;;;;;;;;;5049762;28;20029;-68
2022/10/14 05:55:20;;;;;;;0.10;0.10;;;;;;;;;;5049779;28;20128;-65
2022/10/14 05:57:47;;;;;;;0.10;0.10;;;;;;;;;;5049338;28;20029;-65
2022/10/14 06:00:18;;;;;;;;;;;;;;;;;;5050737;28;20439;-65
2022/10/14 06:02:45;;;;;;;0.10;0.10;;;;;;;;;;5049236;28;19923;-66
2022/10/14 06:05:16;;;;;;;0.25;0.25;;;;;;;;;;5058385;28;20078;-66
2022/10/14 06:07:41;;;;;;;0.20;0.20;;;;;;;;;;5062051;28;20078;-67
2022/10/14 06:10:07;;;;;;;8.40;3.95;;;;;;;;;;5068255;28;20033;-65
2022/10/14 06:12:33;;;;;;;0.10;0.10;;;;;;;;;;5069042;28;20039;-67
2022/10/14 06:14:59;;;;;;;0.10;0.10;;;;;;;;;;5039138;28;20040;-66
2022/10/14 06:17:25;;;;;;;0.20;0.20;;;;;;;;;;5050225;28;20037;-66
2022/10/14 06:19:52;;;;;;;0.30;0.30;;;;;;;;;;5051158;28;20037;-65
2022/10/14 06:22:17;;;;;;;0.10;0.10;;;;;;;;;;5058676;28;20040;-65
2022/10/14 06:24:43;;;;;;;2.17;2.05;;;;;;;;;;5050073;28;20029;-67
2022/10/14 06:27:08;;;;;;;0.30;0.30;;;;;;;;;;5050360;28;20404;-67
2022/10/14 06:29:36;;;;;;;0.20;0.20;;;;;;;;;;5050253;28;20021;-66
2022/10/14 06:32:05;;;;;;;0.40;0.40;;;;;;;;;;5048633;28;20032;-67
2022/10/14 06:34:31;;;;;;;0.47;0.47;;;;;;;;;;5049960;28;20064;-65
2022/10/14 06:36:57;;;;;;;0.17;0.17;;;;;;;;;;5050136;28;20059;-65
2022/10/14 06:39:22;;;;;;;0.28;0.28;;;;;;;;;;5050130;28;20028;-65
2022/10/14 06:41:47;;;;;;;0.50;0.50;;;;;;;;;;5050095;28;20451;-66
2022/10/14 06:44:18;;;;;;;2.53;1.17;;;;;;;;;;5049824;28;20510;-64
2022/10/14 06:46:44;;;;;;;0.20;0.20;;;;;;;;;;5050130;28;20063;-65
2022/10/14 06:49:09;;;;;;;0.20;0.20;;;;;;;;;;5049619;28;20076;-64
2022/10/14 06:51:36;;;;;;;0.28;0.28;;;;;;;;;;5048929;28;20487;-66
2022/10/14 06:54:02;;;;;;;0.20;0.20;;;;;;;;;;5049627;28;20021;-66
2022/10/14 06:56:27;;;;;;;0.40;0.40;;;;;;;;;;5050101;28;20094;-64
2022/10/14 06:58:53;;;;;;;0.30;0.30;;;;;;;;;;5049387;28;20025;-65
2022/10/14 07:01:19;;;;;;;0.20;0.20;;;;;;;;;;5049513;28;20075;-69
2022/10/14 07:03:44;;;;;;;0.63;0.63;;;;;;;;;;5049582;28;20061;-65
2022/10/14 07:06:10;;;;;;;0.20;0.20;;;;;;;;;;5049815;28;20067;-64
2022/10/14 07:08:36;;;;;;;0.20;0.20;;;;;;;;;;5049544;28;20450;-65
2022/10/14 07:11:01;;;;;;;0.20;0.20;;;;;;;;;;5049259;28;20064;-65
2022/10/14 07:13:27;;;;;;;0.30;0.30;;;;;;;;;;5049912;28;20033;-65
2022/10/14 07:15:53;;;;;;;0.57;0.57;;;;;;;;;;5047891;28;20476;-67
2022/10/14 07:18:18;;;;;;;0.47;0.47;;;;;;;;;;5049030;28;20098;-68
2022/10/14 07:20:44;;;;;;;0.65;0.65;;;;;;;;;;5049481;28;20031;-69
2022/10/14 07:23:10;;;;;;;0.20;0.20;;;;;;;;;;5048086;28;20086;-65
2022/10/14 07:25:35;;;;;;;0.85;0.85;;;;;;;;;;5049393;28;20538;-65
2022/10/14 07:28:01;;;;;;;0.40;0.40;;;;;;;;;;5048230;28;20035;-65
2022/10/14 07:30:27;;;;;;;0.22;0.22;;;;;;;;;;5049586;28;20033;-69
2022/10/14 07:32:52;;;;;;;1.70;1.60;;;;;;;;;;5060222;28;20384;-64
2022/10/14 07:35:18;;;;;;;1.48;0.98;;;;;;;;;;5054310;28;20384;-65
2022/10/14 07:37:44;;;;;;;0.40;0.40;;;;;;;;;;5053530;28;20025;-65
2022/10/14 07:40:10;;;;;;;0.20;0.20;;;;;;;;;;5055154;28;20035;-67
2022/10/14 07:42:36;;;;;;;0.20;0.20;;;;;;;;;;5061193;28;20045;-66
2022/10/14 07:45:01;;;;;;;6.32;5.90;;;;;;;;;;5054782;28;20039;-66
2022/10/14 07:47:27;;;;;;;0.45;0.45;;;;;;;;;;5057630;28;20380;-65
2022/10/14 07:49:52;;;;;;;0.20;0.20;;;;;;;;;;5050674;28;20445;-67
2022/10/14 07:52:18;;;;;;;0.50;0.50;;;;;;;;;;5066562;28;20012;-65
2022/10/14 07:54:44;;;;;;;0.22;0.22;;;;;;;;;;5063209;28;20030;-68
2022/10/14 07:57:10;;;;;;;0.30;0.30;;;;;;;;;;5050191;28;20061;-66
2022/10/14 07:59:35;;;;;;;0.20;0.20;;;;;;;;;;5065976;28;20032;-67
2022/10/14 08:02:01;;;;;;;0.20;0.20;;;;;;;;;;5064761;28;20427;-66
2022/10/14 08:04:26;;;;;;;0.20;0.20;;;;;;;;;;5065121;28;20163;-65
2022/10/14 08:06:52;;;;;;;0.30;0.30;;;;;;;;;;5065514;28;20029;-66
2022/10/14 08:09:18;;;;;;;0.20;0.20;;;;;;;;;;5065724;28;20119;-66
2022/10/14 08:11:44;;;;;;;0.52;0.52;;;;;;;;;;5065671;28;20116;-66
2022/10/14 08:14:09;;;;;;;0.30;0.30;;;;;;;;;;5066142;28;20556;-65
2022/10/14 08:16:35;;;;;;;0.20;0.20;;;;;;;;;;5066915;28;20024;-66
2022/10/14 08:19:03;;;;;;;0.20;0.20;;;;;;;;;;5066177;28;20144;-67
2022/10/14 08:21:28;;;;;;;0.25;0.25;;;;;;;;;;5066939;28;20024;-65
2022/10/14 08:23:54;;;;;;;0.20;0.20;;;;;;;;;;5065335;28;20036;-66
2022/10/14 08:26:19;;;;;;;0.25;0.25;;;;;;;;;;5066746;28;20095;-66
2022/10/14 08:28:45;;;;;;;0.30;0.30;;;;;;;;;;5069079;28;20016;-65
2022/10/14 08:31:11;;;;;;;0.20;0.20;;;;;;;;;;5071385;28;20142;-66
2022/10/14 08:33:36;;;;;;;0.20;0.20;;;;;;;;;;5072146;28;20476;-65
2022/10/14 08:36:01;;;;;;;0.73;0.73;;;;;;;;;;5072469;28;20033;-66
2022/10/14 08:38:27;;;;;;;0.20;0.20;;;;;;;;;;5072382;28;20033;-66
2022/10/14 08:41:09;;;;;;;0.40;0.40;;;;;;;;;;5072020;28;20103;-66
2022/10/14 08:43:40;;;;;;;0.30;0.30;;;;;;;;;;5072238;28;20082;-67
2022/10/14 08:46:12;;;;;;;0.30;0.30;;;;;;;;;;5071916;28;20040;-68
2022/10/14 08:48:37;;;;;;;0.20;0.20;;;;;;;;;;5072363;28;20051;-65
2022/10/14 08:51:12;;;;;;;0.30;0.30;;;;;;;;;;5072208;28;20035;-67
2022/10/14 08:53:49;;;;;;;1.02;0.93;;;;;;;;;;5072049;28;20040;-65
2022/10/14 08:56:14;;;;;;;1.33;1.05;;;;;;;;;;5072027;28;20099;-66
2022/10/14 08:58:41;;;;;;;0.20;0.20;;;;;;;;;;5071731;28;20032;-66
2022/10/14 09:01:10;;;;;;;0.20;0.20;;;;;;;;;;5072061;28;20055;-66
2022/10/14 09:03:36;;;;;;;0.27;0.27;;;;;;;;;;5071856;28;20045;-65
2022/10/14 09:06:14;;;;;;;0.20;0.20;;;;;;;;;;5070713;28;20436;-66
2022/10/14 09:08:41;;;;;;;2.15;1.27;;;;;;;;;;5071909;28;20388;-65
2022/10/14 09:11:10;;;;;;;5.13;2.67;;;;;;;;;;5071387;28;20119;-65
2022/10/14 09:13:38;;;;;;;1.95;1.30;;;;;;;;;;5071724;28;20020;-65
2022/10/14 09:16:24;;;;;;;0.70;0.70;;;;;;;;;;5071543;28;20028;-65
2022/10/14 09:18:52;;;;;;;0.70;0.63;;;;;;;;;;5070052;28;20036;-65
2022/10/14 09:21:38;;;;;;;0.20;0.20;;;;;;;;;;5071618;28;20040;-66
2022/10/14 09:24:15;;;;;;;1.20;1.10;;;;;;;;;;5069755;28;20071;-66
2022/10/14 09:26:45;;;;;;;0.30;0.30;;;;;;;;;;5056605;28;20021;-66
2022/10/14 09:29:24;;;;;;;0.25;0.25;;;;;;;;;;5057052;28;20033;-67
2022/10/14 09:31:50;;;;;;;6.22;3.00;;;;;;;;;;5057577;28;20025;-67
2022/10/14 09:34:17;;;;;;;6.13;3.13;;;;;;;;;;5061378;28;20146;-67
2022/10/14 09:36:43;;;;;;;3.13;2.92;;;;;;;;;;5049455;28;20063;-67
2022/10/14 09:39:10;;;;;;;0.20;0.20;;;;;;;;;;5049322;28;20029;-66
2022/10/14 09:41:37;;;;;;;0.60;0.45;;;;;;;;;;5050144;28;20021;-67
2022/10/14 09:44:14;;;;;;;3.97;3.20;;;;;;;;;;5049580;28;20036;-66
2022/10/14 09:46:39;;;;;;;5.70;3.42;;;;;;;;;;5049941;28;20037;-67
2022/10/14 09:49:11;;;;;;;9.07;3.38;;;;;;;;;;5066208;28;20036;-66
2022/10/14 09:51:36;;;;;;;0.82;0.82;;;;;;;;;;5057590;28;20021;-66
2022/10/14 09:54:03;;;;;;;2.08;1.25;;;;;;;;;;5058238;28;20029;-67
2022/10/14 09:56:30;;;;;;;0.40;0.40;;;;;;;;;;5065741;28;20028;-70
2022/10/14 09:58:56;;;;;;;0.20;0.20;;;;;;;;;;5049450;28;20498;-68
2022/10/14 10:01:26;;;;;;;0.25;0.25;;;;;;;;;;5056546;28;20484;-66
2022/10/14 10:03:53;;;;;;;0.57;0.57;;;;;;;;;;5060125;28;20380;-67
2022/10/14 10:06:20;;;;;;;0.25;0.25;;;;;;;;;;5049483;28;20028;-67
2022/10/14 10:08:51;;;;;;;21.13;1.92;;;;;;;;;;5052584;28;20098;-67
2022/10/14 10:11:27;;;;;;;2.92;1.67;;;;;;;;;;5057762;28;20032;-67
2022/10/14 10:13:52;;;;;;;0.93;0.75;;;;;;;;;;5070297;28;20037;-67
2022/10/14 10:16:21;;;;;;;3.80;1.65;;;;;;;;;;5069606;28;20025;-66
2022/10/14 10:18:47;;;;;;;1.38;1.27;;;;;;;;;;5050582;28;20049;-68
2022/10/14 10:21:23;;;;;;;0.40;0.40;;;;;;;;;;5056382;28;20070;-67
2022/10/14 10:23:52;;;;;;;0.55;0.55;;;;;;;;;;5055235;28;20036;-67
2022/10/14 10:26:24;;;;;;;1.90;1.40;;;;;;;;;;5049807;28;20029;-67
2022/10/14 10:28:50;;;;;;;0.30;0.30;;;;;;;;;;5048178;28;20267;-66
2022/10/14 10:31:19;;;;;;;2.33;1.48;;;;;;;;;;5049862;28;20025;-67
2022/10/14 10:34:06;;;;;;;0.40;0.40;;;;;;;;;;5068491;28;20472;-66
2022/10/14 10:36:37;;;;;;;0.20;0.20;;;;;;;;;;5065388;28;20151;-66
2022/10/14 10:39:26;;;;;;;0.47;0.47;;;;;;;;;;5069683;28;20471;-67
2022/10/14 10:41:58;;;;;;;2.78;1.83;;;;;;;;;;5066702;28;20512;-66
2022/10/14 10:44:26;;;;;;;0.30;0.30;;;;;;;;;;5069871;28;20453;-68
2022/10/14 10:46:54;;;;;;;0.20;0.20;;;;;;;;;;5069806;28;20096;-67
2022/10/14 10:49:29;;;;;;;0.20;0.20;;;;;;;;;;5069834;28;20029;-68
2022/10/14 10:52:27;;;;;;;0.47;0.45;;;;;;;;;;5067559;28;20028;-67
2022/10/14 10:55:10;;;;;;;1.67;1.27;;;;;;;;;;5063647;28;20041;-68
2022/10/14 10:57:36;;;;;;;1.90;1.02;;;;;;;;;;5069758;28;20032;-68
2022/10/14 11:00:07;;;;;;;0.20;0.20;;;;;;;;;;5069705;28;20024;-69
2022/10/14 11:03:11;;;;;;;0.30;0.30;;;;;;;;;;5069239;28;20131;-68
2022/10/14 11:05:39;;;;;;;0.20;0.20;;;;;;;;;;5030309;28;20036;-68
2022/10/14 11:14:08;;;;;;;5.90;3.25;;;;;;;;;;5068278;28;20044;-68
2022/10/14 11:16:36;;;;;;;1.63;1.48;;;;;;;;;;5066163;28;20151;-68
2022/10/14 11:19:21;;;;;;;14.02;1.88;;;;;;;;;;5067582;28;20211;-67
2022/10/14 11:22:05;;;;;;;0.85;0.68;;;;;;;;;;5067969;28;20107;-68
2022/10/14 11:24:53;;;;;;;3.75;1.67;;;;;;;;;;5068588;28;20036;-67
2022/10/14 11:27:37;;;;;;;0.20;0.20;;;;;;;;;;5069238;28;20040;-67
2022/10/14 11:30:14;;;;;;;4.13;3.92;;;;;;;;;;5068437;28;20089;-69
2022/10/14 11:32:45;;;;;;;1.95;1.30;;;;;;;;;;5055742;28;20033;-67
2022/10/14 11:35:11;;;;;;;0.82;0.82;;;;;;;;;;5049110;28;20570;-67
2022/10/14 11:37:45;;;;;;;0.70;0.70;;;;;;;;;;5048939;28;20025;-67
2022/10/14 11:40:37;;;;;;;1.75;0.95;;;;;;;;;;5054070;28;20037;-67
2022/10/14 11:43:18;;;;;;;0.20;0.20;;;;;;;;;;5052527;28;20049;-67
2022/10/14 11:45:47;;;;;;;0.20;0.20;;;;;;;;;;5053986;28;20048;-69
2022/10/14 11:48:18;;;;;;;0.30;0.30;;;;;;;;;;5061195;28;20024;-67
2022/10/14 11:50:47;;;;;;;0.20;0.20;;;;;;;;;;5053333;28;20283;-69
2022/10/14 11:53:16;;;;;;;0.43;0.43;;;;;;;;;;5057956;28;20052;-67
2022/10/14 11:55:43;;;;;;;0.30;0.30;;;;;;;;;;5047814;28;20041;-68
2022/10/14 11:58:16;;;;;;;0.57;0.57;;;;;;;;;;5050602;28;20619;-67
2022/10/14 12:00:43;;;;;;;1.50;0.95;;;;;;;;;;5067180;28;20135;-67
2022/10/14 12:03:09;;;;;;;2.90;2.15;;;;;;;;;;5069716;28;20521;-67
2022/10/14 12:06:13;;;;;;;0.50;0.50;;;;;;;;;;5071099;28;20056;-67
2022/10/14 12:08:59;;;;;;;0.77;0.57;;;;;;;;;;5048254;28;20388;-67
2022/10/14 12:11:28;;;;;;;7.10;1.50;;;;;;;;;;5048075;28;20029;-67
2022/10/14 12:13:58;;;;;;;0.57;0.57;;;;;;;;;;5054168;28;20082;-68
2022/10/14 12:16:24;;;;;;;0.20;0.20;;;;;;;;;;5071431;28;20028;-67
2022/10/14 12:18:53;;;;;;;2.40;1.40;;;;;;;;;;5071986;28;20055;-67
2022/10/14 12:21:20;;;;;;;3.85;2.17;;;;;;;;;;5072543;28;20028;-67
2022/10/14 12:23:48;;;;;;;0.30;0.30;;;;;;;;;;5072201;28;20064;-68
2022/10/14 12:26:13;;;;;;;2.05;1.25;;;;;;;;;;5072329;28;20020;-68
2022/10/14 12:28:39;;;;;;;5.32;3.33;;;;;;;;;;5072474;28;20637;-69
2022/10/14 12:31:24;;;;;;;5.53;2.42;;;;;;;;;;5072228;28;20028;-67
2022/10/14 12:34:17;;;;;;;2.58;1.63;;;;;;;;;;5067226;28;20059;-68
2022/10/14 12:36:49;;;;;;;6.38;2.75;;;;;;;;;;5067858;28;20028;-67
2022/10/14 12:39:17;;;;;;;12.18;1.80;;;;;;;;;;5069267;28;20037;-67
2022/10/14 12:41:58;;;;;;;6.00;2.33;;;;;;;;;;5072176;28;20056;-67
2022/10/14 12:44:42;;;;;;;3.90;2.65;;;;;;;;;;5071072;28;20044;-68
2022/10/14 12:47:15;;;;;;;4.97;1.92;;;;;;;;;;5071925;28;20472;-67
2022/10/14 12:49:45;;;;;;;2.70;1.63;;;;;;;;;;5072453;28;20496;-67
2022/10/14 12:52:17;;;;;;;6.78;3.83;;;;;;;;;;5070945;28;20021;-67
2022/10/14 12:54:45;;;;;;;0.43;0.40;;;;;;;;;;5070806;28;20062;-69
2022/10/14 12:57:19;;;;;;;3.08;2.00;;;;;;;;;;5070984;28;20028;-67
2022/10/14 12:59:48;;;;;;;3.33;1.98;;;;;;;;;;5070583;28;20044;-69
2022/10/14 13:02:26;;;;;;;2.60;1.58;;;;;;;;;;5072108;28;20400;-67
2022/10/14 13:04:52;;;;;;;0.82;0.75;;;;;;;;;;5071448;28;20044;-67
2022/10/14 13:07:18;;;;;;;6.82;3.17;;;;;;;;;;5071984;28;20053;-68
2022/10/14 13:09:44;;;;;;;1.45;1.05;;;;;;;;;;5070743;28;20020;-68
2022/10/14 13:12:30;;;;;;;3.75;2.22;;;;;;;;;;5072248;28;20036;-68
2022/10/14 13:14:57;;;;;;;2.83;1.98;;;;;;;;;;5070422;28;20464;-68
2022/10/14 13:17:37;;;;;;;1.58;1.17;;;;;;;;;;5071774;28;20118;-68
2022/10/14 13:20:03;;;;;;;3.72;2.70;;;;;;;;;;5070013;28;20032;-70
2022/10/14 13:22:30;;;;;;;3.10;2.38;;;;;;;;;;5063544;28;20031;-69
2022/10/14 13:25:11;;;;;;;4.78;2.60;;;;;;;;;;5060951;28;20083;-68
2022/10/14 13:27:42;;;;;;;0.20;0.20;;;;;;;;;;5064169;28;20025;-68
2022/10/14 13:30:11;;;;;;;2.15;1.63;;;;;;;;;;5054746;28;20036;-68
2022/10/14 13:32:42;;;;;;;2.57;1.67;;;;;;;;;;5071775;28;20036;-68
2022/10/14 13:35:29;;;;;;;5.13;1.40;;;;;;;;;;5070369;28;20480;-68
2022/10/14 13:38:02;;;;;;;2.90;1.77;;;;;;;;;;5051715;28;20029;-68
2022/10/14 13:40:35;;;;;;;1.98;1.50;;;;;;;;;;5051326;28;20056;-71
2022/10/14 13:43:05;;;;;;;5.35;2.15;;;;;;;;;;5049541;28;20434;-69
2022/10/14 13:45:33;;;;;;;6.53;3.47;;;;;;;;;;5062134;28;20473;-67
2022/10/14 13:47:59;;;;;;;3.83;1.85;;;;;;;;;;5061804;28;20032;-68
2022/10/14 13:50:30;;;;;;;4.20;2.28;;;;;;;;;;5044006;28;20051;-71
2022/10/14 13:52:57;;;;;;;4.90;2.92;;;;;;;;;;5056774;28;20036;-70
2022/10/14 13:55:24;;;;;;;12.75;2.88;;;;;;;;;;5050798;28;20115;-70
2022/10/14 13:58:18;;;;;;;3.33;2.25;;;;;;;;;;5070147;28;20037;-68
2022/10/14 14:00:49;;;;;;;4.32;2.83;;;;;;;;;;5065653;28;20541;-68
2022/10/14 14:03:14;;;;;;;7.32;3.63;;;;;;;;;;5069888;28;20045;-67
2022/10/14 14:05:40;;;;;;;5.95;2.50;;;;;;;;;;5070476;28;20086;-68
2022/10/14 14:08:06;;;;;;;6.88;4.18;;;;;;;;;;5070459;28;20025;-67
2022/10/14 14:10:31;;;;;;;4.13;3.05;;;;;;;;;;5067656;28;20138;-69
2022/10/14 14:12:58;;;;;;;4.15;1.70;;;;;;;;;;5069036;28;20529;-68
2022/10/14 14:15:25;;;;;;;2.58;2.25;;;;;;;;;;5069399;28;20082;-68
2022/10/14 14:17:51;;;;;;;5.10;3.15;;;;;;;;;;5070457;28;20504;-69
2022/10/14 14:20:25;;;;;;;5.57;2.70;;;;;;;;;;5070552;28;20066;-68
2022/10/14 14:22:52;;;;;;;8.82;3.83;;;;;;;;;;5069976;28;20044;-68
2022/10/14 14:25:25;;;;;;;7.18;2.60;;;;;;;;;;5070417;28;20029;-68
2022/10/14 14:27:53;;;;;;;4.65;2.42;;;;;;;;;;5068789;28;20036;-68
2022/10/14 14:30:25;;;;;;;8.20;3.17;;;;;;;;;;5069057;28;20024;-68
2022/10/14 14:32:51;;;;;;;4.03;2.70;;;;;;;;;;5069953;28;20159;-68
2022/10/14 14:35:17;;;;;;;5.15;3.70;;;;;;;;;;5070280;28;20543;-68
2022/10/14 14:37:43;;;;;;;12.02;4.72;;;;;;;;;;5070549;28;20042;-69
2022/10/14 14:40:20;;;;;;;3.22;2.28;;;;;;;;;;5069253;28;20046;-69
2022/10/14 14:42:47;;;;;;;8.90;4.03;;;;;;;;;;5069601;28;20436;-69
2022/10/14 14:45:13;;;;;;;4.65;2.97;;;;;;;;;;5068276;28;20440;-69
2022/10/14 14:47:40;;;;;;;7.22;3.22;;;;;;;;;;5069826;28;20255;-69
2022/10/14 14:50:06;;;;;;;6.03;4.30;;;;;;;;;;5069957;28;20414;-69
2022/10/14 14:52:32;;;;;;;3.92;2.80;;;;;;;;;;5069909;28;20059;-69
2022/10/14 14:54:57;;;;;;;5.18;3.65;;;;;;;;;;5069164;28;20100;-70
2022/10/14 14:57:23;;;;;;;2.08;1.50;;;;;;;;;;5069909;28;20531;-68
2022/10/14 14:59:58;;;;;;;2.78;1.17;;;;;;;;;;5068422;28;20495;-68
2022/10/14 15:02:24;;;;;;;7.70;3.88;;;;;;;;;;5069571;28;20032;-68
2022/10/14 15:05:00;;;;;;;15.77;3.17;;;;;;;;;;5069319;28;20051;-69